sensor_id;sensor_type;location;lat;lon;timestamp;temperature;humidity
18126;DHT22;53956;52.442;13.284;2023-03-24T00:00:06;14.70;99.90
18126;DHT22;53956;52.442;13.284;2023-03-24T00:02:36;14.70;99.90
18126;DHT22;53956;52.442;13.284;2023-03-24T00:05:06;14.70;99.90
18126;DHT22;53956;52.442;13.284;2023-03-24T00:07:33;14.80;99.90
18126;DHT22;53956;52.442;13.284;2023-03-24T00:10:03;14.80;99.90
18126;DHT22;53956;52.442;13.284;2023-03-24T00:12:32;14.70;99.90
18126;DHT22;53956;52.442;13.284;2023-03-24T00:14:58;14.70;99.90
18126;DHT22;53956;52.442;13.284;2023-03-24T00:17:27;14.70;99.90
18126;DHT22;53956;52.442;13.284;2023-03-24T00:19:53;14.70;99.90
18126;DHT22;53956;52.442;13.284;2023-03-24T00:22:25;14.70;99.90
18126;DHT22;53956;52.442;13.284;2023-03-24T00:24:52;14.60;99.90
18126;DHT22;53956;52.442;13.284;2023-03-24T00:27:19;14.70;99.90
18126;DHT22;53956;52.442;13.284;2023-03-24T00:29:48;14.70;99.90
18126;DHT22;53956;52.442;13.284;2023-03-24T00:32:14;14.80;99.90
18126;DHT22;53956;52.442;13.284;2023-03-24T00:34:42;14.80;99.90
18126;DHT22;53956;52.442;13.284;2023-03-24T00:37:08;14.70;99.90
18126;DHT22;53956;52.442;13.284;2023-03-24T00:39:35;14.70;99.90
18126;DHT22;53956;52.442;13.284;2023-03-24T00:42:02;14.80;99.90
18126;DHT22;53956;52.442;13.284;2023-03-24T00:44:28;14.70;99.90
18126;DHT22;53956;52.442;13.284;2023-03-24T00:46:56;14.70;99.90
18126;DHT22;53956;52.442;13.284;2023-03-24T00:49:26;14.60;99.90
18126;DHT22;53956;52.442;13.284;2023-03-24T00:52:08;14.70;99.90
18126;DHT22;53956;52.442;13.284;2023-03-24T00:54:35;14.70;99.90
18126;DHT22;53956;52.442;13.284;2023-03-24T00:57:03;14.70;99.90
18126;DHT22;53956;52.442;13.284;2023-03-24T00:59:30;14.70;99.90
18126;DHT22;53956;52.442;13.284;2023-03-24T01:02:03;14.80;99.90
18126;DHT22;53956;52.442;13.284;2023-03-24T01:04:30;14.80;99.90
18126;DHT22;53956;52.442;13.284;2023-03-24T01:07:01;14.70;99.90
18126;DHT22;53956;52.442;13.284;2023-03-24T01:09:28;14.60;99.90
18126;DHT22;53956;52.442;13.284;2023-03-24T01:11:54;14.60;99.90
18126;DHT22;53956;52.442;13.284;2023-03-24T01:14:21;14.60;99.90
18126;DHT22;53956;52.442;13.284;2023-03-24T01:16:48;14.60;99.90
18126;DHT22;53956;52.442;13.284;2023-03-24T01:19:17;14.50;99.90
18126;DHT22;53956;52.442;13.284;2023-03-24T01:21:43;14.60;99.90
18126;DHT22;53956;52.442;13.284;2023-03-24T01:24:10;14.60;99.90
18126;DHT22;53956;52.442;13.284;2023-03-24T01:26:38;14.60;99.90
18126;DHT22;53956;52.442;13.284;2023-03-24T01:29:05;14.70;99.90
18126;DHT22;53956;52.442;13.284;2023-03-24T01:31:32;14.70;99.90
18126;DHT22;53956;52.442;13.284;2023-03-24T01:33:59;14.80;99.90
18126;DHT22;53956;52.442;13.284;2023-03-24T01:36:27;14.70;99.90
18126;DHT22;53956;52.442;13.284;2023-03-24T01:38:54;14.70;99.90
18126;DHT22;53956;52.442;13.284;2023-03-24T01:41:23;14.70;99.90
18126;DHT22;53956;52.442;13.284;2023-03-24T01:43:49;14.70;99.90
18126;DHT22;53956;52.442;13.284;2023-03-24T01:46:17;14.60;99.90
18126;DHT22;53956;52.442;13.284;2023-03-24T01:48:49;14.70;99.90
18126;DHT22;53956;52.442;13.284;2023-03-24T01:51:20;14.70;99.90
18126;DHT22;53956;52.442;13.284;2023-03-24T01:53:53;14.70;99.90
18126;DHT22;53956;52.442;13.284;2023-03-24T01:56:21;14.50;99.90
18126;DHT22;53956;52.442;13.284;2023-03-24T01:58:52;14.50;99.90
18126;DHT22;53956;52.442;13.284;2023-03-24T02:01:29;14.40;99.90
18126;DHT22;53956;52.442;13.284;2023-03-24T02:04:31;14.60;99.90
18126;DHT22;53956;52.442;13.284;2023-03-24T02:07:07;14.50;99.90
18126;DHT22;53956;52.442;13.284;2023-03-24T02:09:36;14.60;99.90
18126;DHT22;53956;52.442;13.284;2023-03-24T02:12:03;14.50;99.90
18126;DHT22;53956;52.442;13.284;2023-03-24T02:14:32;14.60;99.90
18126;DHT22;53956;52.442;13.284;2023-03-24T02:17:11;14.50;99.90
18126;DHT22;53956;52.442;13.284;2023-03-24T02:20:27;14.50;99.90
18126;DHT22;53956;52.442;13.284;2023-03-24T02:23:09;14.60;99.90
18126;DHT22;53956;52.442;13.284;2023-03-24T02:29:02;14.50;99.90
18126;DHT22;53956;52.442;13.284;2023-03-24T02:32:01;14.60;99.90
18126;DHT22;53956;52.442;13.284;2023-03-24T02:35:02;14.70;99.90
18126;DHT22;53956;52.442;13.284;2023-03-24T02:40:46;14.80;99.90
18126;DHT22;53956;52.442;13.284;2023-03-24T02:43:27;14.60;99.90
18126;DHT22;53956;52.442;13.284;2023-03-24T02:46:07;14.60;99.90
18126;DHT22;53956;52.442;13.284;2023-03-24T02:48:44;14.60;99.90
18126;DHT22;53956;52.442;13.284;2023-03-24T02:51:16;14.70;99.90
18126;DHT22;53956;52.442;13.284;2023-03-24T02:53:54;14.70;99.90
18126;DHT22;53956;52.442;13.284;2023-03-24T02:56:33;14.50;99.90
18126;DHT22;53956;52.442;13.284;2023-03-24T02:59:16;14.60;99.90
18126;DHT22;53956;52.442;13.284;2023-03-24T03:01:49;14.60;99.90
18126;DHT22;53956;52.442;13.284;2023-03-24T03:04:45;14.60;99.90
18126;DHT22;53956;52.442;13.284;2023-03-24T03:07:18;14.60;99.90
18126;DHT22;53956;52.442;13.284;2023-03-24T03:09:53;14.60;99.90
18126;DHT22;53956;52.442;13.284;2023-03-24T03:12:25;14.60;99.90
18126;DHT22;53956;52.442;13.284;2023-03-24T03:14:56;14.60;99.90
18126;DHT22;53956;52.442;13.284;2023-03-24T03:17:26;14.50;99.90
18126;DHT22;53956;52.442;13.284;2023-03-24T03:19:58;14.40;99.90
18126;DHT22;53956;52.442;13.284;2023-03-24T03:22:36;14.50;99.90
18126;DHT22;53956;52.442;13.284;2023-03-24T03:25:05;14.50;99.90
18126;DHT22;53956;52.442;13.284;2023-03-24T03:27:34;14.40;99.90
18126;DHT22;53956;52.442;13.284;2023-03-24T03:30:06;14.50;99.90
18126;DHT22;53956;52.442;13.284;2023-03-24T03:32:38;14.40;99.90
18126;DHT22;53956;52.442;13.284;2023-03-24T03:35:08;14.40;99.90
18126;DHT22;53956;52.442;13.284;2023-03-24T03:37:44;14.50;99.90
18126;DHT22;53956;52.442;13.284;2023-03-24T03:40:14;14.50;99.90
18126;DHT22;53956;52.442;13.284;2023-03-24T03:42:50;14.50;99.90
18126;DHT22;53956;52.442;13.284;2023-03-24T03:45:17;14.30;99.90
18126;DHT22;53956;52.442;13.284;2023-03-24T03:47:44;14.30;99.90
18126;DHT22;53956;52.442;13.284;2023-03-24T03:50:11;14.30;99.90
18126;DHT22;53956;52.442;13.284;2023-03-24T03:52:38;14.40;99.90
18126;DHT22;53956;52.442;13.284;2023-03-24T03:55:09;14.40;99.90
18126;DHT22;53956;52.442;13.284;2023-03-24T03:57:38;14.30;99.90
18126;DHT22;53956;52.442;13.284;2023-03-24T04:00:15;14.40;99.90
18126;DHT22;53956;52.442;13.284;2023-03-24T04:03:11;14.40;99.90
18126;DHT22;53956;52.442;13.284;2023-03-24T04:05:47;14.30;99.90
18126;DHT22;53956;52.442;13.284;2023-03-24T04:08:24;14.30;99.90
18126;DHT22;53956;52.442;13.284;2023-03-24T04:11:20;14.20;99.90
18126;DHT22;53956;52.442;13.284;2023-03-24T04:14:17;14.30;99.90
18126;DHT22;53956;52.442;13.284;2023-03-24T04:17:02;14.30;99.90
18126;DHT22;53956;52.442;13.284;2023-03-24T04:19:47;14.30;99.90
18126;DHT22;53956;52.442;13.284;2023-03-24T04:22:24;14.40;99.90
18126;DHT22;53956;52.442;13.284;2023-03-24T04:25:11;14.50;99.90
18126;DHT22;53956;52.442;13.284;2023-03-24T04:27:44;14.40;99.90
18126;DHT22;53956;52.442;13.284;2023-03-24T04:30:22;14.40;99.90
18126;DHT22;53956;52.442;13.284;2023-03-24T04:32:57;14.40;99.90
18126;DHT22;53956;52.442;13.284;2023-03-24T04:35:30;14.40;99.90
18126;DHT22;53956;52.442;13.284;2023-03-24T04:38:15;14.40;99.90
18126;DHT22;53956;52.442;13.284;2023-03-24T04:40:50;14.50;99.90
18126;DHT22;53956;52.442;13.284;2023-03-24T04:43:22;14.60;99.90
18126;DHT22;53956;52.442;13.284;2023-03-24T04:45:50;14.50;99.90
18126;DHT22;53956;52.442;13.284;2023-03-24T04:48:29;14.50;99.90
18126;DHT22;53956;52.442;13.284;2023-03-24T04:51:18;14.50;99.90
18126;DHT22;53956;52.442;13.284;2023-03-24T04:54:02;14.40;99.90
18126;DHT22;53956;52.442;13.284;2023-03-24T04:56:38;14.40;99.90
18126;DHT22;53956;52.442;13.284;2023-03-24T04:59:10;14.50;99.90
18126;DHT22;53956;52.442;13.284;2023-03-24T05:01:38;14.40;99.90
18126;DHT22;53956;52.442;13.284;2023-03-24T05:04:29;14.50;99.90
18126;DHT22;53956;52.442;13.284;2023-03-24T05:07:03;14.50;99.90
18126;DHT22;53956;52.442;13.284;2023-03-24T05:09:31;14.50;99.90
18126;DHT22;53956;52.442;13.284;2023-03-24T05:11:59;14.40;99.90
18126;DHT22;53956;52.442;13.284;2023-03-24T05:14:26;14.60;99.90
18126;DHT22;53956;52.442;13.284;2023-03-24T05:16:53;14.60;99.90
18126;DHT22;53956;52.442;13.284;2023-03-24T05:19:22;14.60;99.90
18126;DHT22;53956;52.442;13.284;2023-03-24T05:21:50;14.50;99.90
18126;DHT22;53956;52.442;13.284;2023-03-24T05:24:19;14.50;99.90
18126;DHT22;53956;52.442;13.284;2023-03-24T05:26:46;14.50;99.90
18126;DHT22;53956;52.442;13.284;2023-03-24T05:29:16;14.60;99.90
18126;DHT22;53956;52.442;13.284;2023-03-24T05:31:43;14.60;99.90
18126;DHT22;53956;52.442;13.284;2023-03-24T05:34:16;14.50;99.90
18126;DHT22;53956;52.442;13.284;2023-03-24T05:36:52;14.50;99.90
18126;DHT22;53956;52.442;13.284;2023-03-24T05:39:21;14.50;99.90
18126;DHT22;53956;52.442;13.284;2023-03-24T05:41:55;14.50;99.90
18126;DHT22;53956;52.442;13.284;2023-03-24T05:44:22;14.60;99.90
18126;DHT22;53956;52.442;13.284;2023-03-24T05:47:03;14.60;99.90
18126;DHT22;53956;52.442;13.284;2023-03-24T05:49:30;14.60;99.90
18126;DHT22;53956;52.442;13.284;2023-03-24T05:51:59;14.70;99.90
18126;DHT22;53956;52.442;13.284;2023-03-24T05:54:26;14.50;99.90
18126;DHT22;53956;52.442;13.284;2023-03-24T05:57:01;14.60;99.90
18126;DHT22;53956;52.442;13.284;2023-03-24T05:59:33;14.50;99.90
18126;DHT22;53956;52.442;13.284;2023-03-24T06:02:06;14.50;99.90
18126;DHT22;53956;52.442;13.284;2023-03-24T06:04:59;14.70;99.90
18126;DHT22;53956;52.442;13.284;2023-03-24T06:07:27;14.70;99.90
18126;DHT22;53956;52.442;13.284;2023-03-24T06:09:56;14.70;99.90
18126;DHT22;53956;52.442;13.284;2023-03-24T06:12:30;14.70;99.90
18126;DHT22;53956;52.442;13.284;2023-03-24T06:15:00;14.60;99.90
18126;DHT22;53956;52.442;13.284;2023-03-24T06:17:29;14.70;99.90
18126;DHT22;53956;52.442;13.284;2023-03-24T06:19:59;14.80;99.90
18126;DHT22;53956;52.442;13.284;2023-03-24T06:22:43;14.80;99.90
18126;DHT22;53956;52.442;13.284;2023-03-24T06:25:15;14.80;99.90
18126;DHT22;53956;52.442;13.284;2023-03-24T06:27:54;14.80;99.90
18126;DHT22;53956;52.442;13.284;2023-03-24T06:30:23;14.70;99.90
18126;DHT22;53956;52.442;13.284;2023-03-24T06:32:50;14.70;99.90
18126;DHT22;53956;52.442;13.284;2023-03-24T06:35:18;14.80;99.90
18126;DHT22;53956;52.442;13.284;2023-03-24T06:38:06;14.80;99.90
18126;DHT22;53956;52.442;13.284;2023-03-24T06:40:34;14.80;99.90
18126;DHT22;53956;52.442;13.284;2023-03-24T06:43:02;14.80;99.90
18126;DHT22;53956;52.442;13.284;2023-03-24T06:45:30;14.90;99.90
18126;DHT22;53956;52.442;13.284;2023-03-24T06:47:58;14.90;99.90
18126;DHT22;53956;52.442;13.284;2023-03-24T06:50:26;14.90;99.90
18126;DHT22;53956;52.442;13.284;2023-03-24T06:52:58;14.90;99.90
18126;DHT22;53956;52.442;13.284;2023-03-24T06:55:27;14.90;99.90
18126;DHT22;53956;52.442;13.284;2023-03-24T06:57:55;15.00;99.90
18126;DHT22;53956;52.442;13.284;2023-03-24T07:00:41;14.90;99.90
18126;DHT22;53956;52.442;13.284;2023-03-24T07:03:22;14.90;99.90
18126;DHT22;53956;52.442;13.284;2023-03-24T07:06:15;15.00;99.90
18126;DHT22;53956;52.442;13.284;2023-03-24T07:08:44;15.10;99.90
18126;DHT22;53956;52.442;13.284;2023-03-24T07:11:13;15.10;99.90
18126;DHT22;53956;52.442;13.284;2023-03-24T07:13:48;15.10;99.90
18126;DHT22;53956;52.442;13.284;2023-03-24T07:16:15;15.10;99.90
18126;DHT22;53956;52.442;13.284;2023-03-24T07:18:43;15.00;99.90
18126;DHT22;53956;52.442;13.284;2023-03-24T07:21:09;15.10;99.90
18126;DHT22;53956;52.442;13.284;2023-03-24T07:23:36;15.20;99.90
18126;DHT22;53956;52.442;13.284;2023-03-24T07:26:14;15.30;99.90
18126;DHT22;53956;52.442;13.284;2023-03-24T07:28:53;15.40;99.90
18126;DHT22;53956;52.442;13.284;2023-03-24T07:31:39;15.50;99.90
18126;DHT22;53956;52.442;13.284;2023-03-24T07:34:09;15.70;99.90
18126;DHT22;53956;52.442;13.284;2023-03-24T07:36:38;15.60;99.90
18126;DHT22;53956;52.442;13.284;2023-03-24T07:39:09;15.50;99.90
18126;DHT22;53956;52.442;13.284;2023-03-24T07:41:38;15.60;99.90
18126;DHT22;53956;52.442;13.284;2023-03-24T07:44:13;15.50;99.90
18126;DHT22;53956;52.442;13.284;2023-03-24T07:46:47;15.50;99.90
18126;DHT22;53956;52.442;13.284;2023-03-24T07:49:15;15.30;99.90
18126;DHT22;53956;52.442;13.284;2023-03-24T07:51:42;15.40;99.90
18126;DHT22;53956;52.442;13.284;2023-03-24T07:54:21;15.20;99.90
18126;DHT22;53956;52.442;13.284;2023-03-24T07:56:49;15.30;99.90
18126;DHT22;53956;52.442;13.284;2023-03-24T07:59:17;15.20;99.90
18126;DHT22;53956;52.442;13.284;2023-03-24T08:01:49;15.20;99.90
18126;DHT22;53956;52.442;13.284;2023-03-24T08:04:22;15.10;99.90
18126;DHT22;53956;52.442;13.284;2023-03-24T08:07:02;15.10;99.90
18126;DHT22;53956;52.442;13.284;2023-03-24T08:09:29;15.10;99.90
18126;DHT22;53956;52.442;13.284;2023-03-24T08:11:57;15.10;99.90
18126;DHT22;53956;52.442;13.284;2023-03-24T08:14:24;15.10;99.90
18126;DHT22;53956;52.442;13.284;2023-03-24T08:16:50;15.00;99.90
18126;DHT22;53956;52.442;13.284;2023-03-24T08:19:17;15.00;99.90
18126;DHT22;53956;52.442;13.284;2023-03-24T08:21:44;14.90;99.90
18126;DHT22;53956;52.442;13.284;2023-03-24T08:24:11;15.00;99.90
18126;DHT22;53956;52.442;13.284;2023-03-24T08:26:37;15.10;99.90
18126;DHT22;53956;52.442;13.284;2023-03-24T08:29:05;15.00;99.90
18126;DHT22;53956;52.442;13.284;2023-03-24T08:31:33;15.00;99.90
18126;DHT22;53956;52.442;13.284;2023-03-24T08:33:59;14.90;99.90
18126;DHT22;53956;52.442;13.284;2023-03-24T08:36:26;15.00;99.90
18126;DHT22;53956;52.442;13.284;2023-03-24T08:38:54;15.00;99.90
18126;DHT22;53956;52.442;13.284;2023-03-24T08:41:22;14.90;99.90
18126;DHT22;53956;52.442;13.284;2023-03-24T08:43:59;15.00;99.90
18126;DHT22;53956;52.442;13.284;2023-03-24T08:46:29;15.00;99.90
18126;DHT22;53956;52.442;13.284;2023-03-24T08:48:56;15.00;99.90
18126;DHT22;53956;52.442;13.284;2023-03-24T08:51:24;15.10;99.90
18126;DHT22;53956;52.442;13.284;2023-03-24T08:53:51;15.10;99.90
18126;DHT22;53956;52.442;13.284;2023-03-24T08:56:19;15.20;99.90
18126;DHT22;53956;52.442;13.284;2023-03-24T08:58:46;15.20;99.90
18126;DHT22;53956;52.442;13.284;2023-03-24T09:01:16;15.30;99.90
18126;DHT22;53956;52.442;13.284;2023-03-24T09:03:44;15.20;99.90
18126;DHT22;53956;52.442;13.284;2023-03-24T09:06:11;15.20;99.90
18126;DHT22;53956;52.442;13.284;2023-03-24T09:08:38;15.20;99.90
18126;DHT22;53956;52.442;13.284;2023-03-24T09:11:06;15.20;99.90
18126;DHT22;53956;52.442;13.284;2023-03-24T09:13:33;15.30;99.90
18126;DHT22;53956;52.442;13.284;2023-03-24T09:16:01;15.20;99.90
18126;DHT22;53956;52.442;13.284;2023-03-24T09:18:28;15.40;99.90
18126;DHT22;53956;52.442;13.284;2023-03-24T09:20:56;15.30;99.90
18126;DHT22;53956;52.442;13.284;2023-03-24T09:23:23;15.40;99.90
18126;DHT22;53956;52.442;13.284;2023-03-24T09:25:50;15.30;99.90
18126;DHT22;53956;52.442;13.284;2023-03-24T09:28:18;15.30;99.90
18126;DHT22;53956;52.442;13.284;2023-03-24T09:30:45;15.40;99.90
18126;DHT22;53956;52.442;13.284;2023-03-24T09:33:12;15.50;99.90
18126;DHT22;53956;52.442;13.284;2023-03-24T09:35:40;15.50;99.90
18126;DHT22;53956;52.442;13.284;2023-03-24T09:38:08;15.70;99.90
18126;DHT22;53956;52.442;13.284;2023-03-24T09:40:38;15.90;99.90
18126;DHT22;53956;52.442;13.284;2023-03-24T09:43:07;16.10;99.90
18126;DHT22;53956;52.442;13.284;2023-03-24T09:45:46;16.30;99.90
18126;DHT22;53956;52.442;13.284;2023-03-24T09:48:18;16.40;99.90
18126;DHT22;53956;52.442;13.284;2023-03-24T09:50:50;16.60;99.90
18126;DHT22;53956;52.442;13.284;2023-03-24T09:53:26;16.50;99.90
18126;DHT22;53956;52.442;13.284;2023-03-24T09:55:53;16.50;99.90
18126;DHT22;53956;52.442;13.284;2023-03-24T09:58:21;16.50;99.90
18126;DHT22;53956;52.442;13.284;2023-03-24T10:00:50;16.50;99.90
18126;DHT22;53956;52.442;13.284;2023-03-24T10:03:19;16.60;99.90
18126;DHT22;53956;52.442;13.284;2023-03-24T10:05:49;16.50;99.90
18126;DHT22;53956;52.442;13.284;2023-03-24T10:08:24;16.50;99.90
18126;DHT22;53956;52.442;13.284;2023-03-24T10:11:00;16.40;99.90
18126;DHT22;53956;52.442;13.284;2023-03-24T10:13:36;16.30;99.90
18126;DHT22;53956;52.442;13.284;2023-03-24T10:16:11;16.40;99.90
18126;DHT22;53956;52.442;13.284;2023-03-24T10:18:44;16.30;99.90
18126;DHT22;53956;52.442;13.284;2023-03-24T10:21:16;16.30;99.90
18126;DHT22;53956;52.442;13.284;2023-03-24T10:23:51;16.20;99.90
18126;DHT22;53956;52.442;13.284;2023-03-24T10:26:30;16.30;99.90
18126;DHT22;53956;52.442;13.284;2023-03-24T10:29:09;16.20;99.90
18126;DHT22;53956;52.442;13.284;2023-03-24T10:31:40;16.40;99.90
18126;DHT22;53956;52.442;13.284;2023-03-24T10:34:10;16.40;99.90
18126;DHT22;53956;52.442;13.284;2023-03-24T10:36:37;16.50;99.90
18126;DHT22;53956;52.442;13.284;2023-03-24T10:39:08;16.80;99.90
18126;DHT22;53956;52.442;13.284;2023-03-24T10:41:41;16.80;99.90
18126;DHT22;53956;52.442;13.284;2023-03-24T10:44:09;17.00;99.90
18126;DHT22;53956;52.442;13.284;2023-03-24T10:46:42;17.00;99.90
18126;DHT22;53956;52.442;13.284;2023-03-24T10:49:14;16.80;99.90
18126;DHT22;53956;52.442;13.284;2023-03-24T10:51:44;16.90;99.90
18126;DHT22;53956;52.442;13.284;2023-03-24T10:54:16;16.80;99.90
18126;DHT22;53956;52.442;13.284;2023-03-24T10:56:44;16.80;99.90
18126;DHT22;53956;52.442;13.284;2023-03-24T10:59:20;16.80;99.90
18126;DHT22;53956;52.442;13.284;2023-03-24T11:01:54;16.80;99.90
18126;DHT22;53956;52.442;13.284;2023-03-24T11:04:21;16.70;99.90
18126;DHT22;53956;52.442;13.284;2023-03-24T11:07:02;16.80;99.90
18126;DHT22;53956;52.442;13.284;2023-03-24T11:09:37;16.80;99.90
18126;DHT22;53956;52.442;13.284;2023-03-24T11:12:10;16.80;99.90
18126;DHT22;53956;52.442;13.284;2023-03-24T11:14:45;16.80;99.90
18126;DHT22;53956;52.442;13.284;2023-03-24T11:17:14;16.80;99.90
18126;DHT22;53956;52.442;13.284;2023-03-24T11:19:50;16.90;99.90
18126;DHT22;53956;52.442;13.284;2023-03-24T11:22:17;17.30;99.90
18126;DHT22;53956;52.442;13.284;2023-03-24T11:24:47;17.60;99.90
18126;DHT22;53956;52.442;13.284;2023-03-24T11:27:15;17.70;99.90
18126;DHT22;53956;52.442;13.284;2023-03-24T11:29:44;17.60;99.90
18126;DHT22;53956;52.442;13.284;2023-03-24T11:32:17;17.50;99.70
18126;DHT22;53956;52.442;13.284;2023-03-24T11:34:49;17.30;99.40
18126;DHT22;53956;52.442;13.284;2023-03-24T11:37:22;17.40;99.50
18126;DHT22;53956;52.442;13.284;2023-03-24T11:40:15;17.50;98.90
18126;DHT22;53956;52.442;13.284;2023-03-24T11:42:43;17.50;97.80
18126;DHT22;53956;52.442;13.284;2023-03-24T11:45:24;17.60;97.80
18126;DHT22;53956;52.442;13.284;2023-03-24T11:47:56;17.80;97.10
18126;DHT22;53956;52.442;13.284;2023-03-24T11:50:27;17.90;98.00
18126;DHT22;53956;52.442;13.284;2023-03-24T11:52:58;18.00;97.60
18126;DHT22;53956;52.442;13.284;2023-03-24T11:55:34;18.00;97.30
18126;DHT22;53956;52.442;13.284;2023-03-24T11:58:08;18.00;97.50
18126;DHT22;53956;52.442;13.284;2023-03-24T12:00:41;18.00;97.90
18126;DHT22;53956;52.442;13.284;2023-03-24T12:06:10;17.80;98.00
18126;DHT22;53956;52.442;13.284;2023-03-24T12:08:48;17.80;97.30
18126;DHT22;53956;52.442;13.284;2023-03-24T12:11:26;17.80;98.00
18126;DHT22;53956;52.442;13.284;2023-03-24T12:13:56;17.80;97.90
18126;DHT22;53956;52.442;13.284;2023-03-24T12:16:42;17.80;97.50
18126;DHT22;53956;52.442;13.284;2023-03-24T12:19:30;17.90;97.40
18126;DHT22;53956;52.442;13.284;2023-03-24T12:22:08;17.80;97.60
18126;DHT22;53956;52.442;13.284;2023-03-24T12:24:52;17.70;97.50
18126;DHT22;53956;52.442;13.284;2023-03-24T12:27:30;17.70;97.00
18126;DHT22;53956;52.442;13.284;2023-03-24T12:30:03;17.60;97.00
18126;DHT22;53956;52.442;13.284;2023-03-24T12:32:50;17.60;97.90
18126;DHT22;53956;52.442;13.284;2023-03-24T12:35:52;17.60;98.10
18126;DHT22;53956;52.442;13.284;2023-03-24T12:38:35;17.50;98.10
18126;DHT22;53956;52.442;13.284;2023-03-24T12:41:32;17.40;98.70
18126;DHT22;53956;52.442;13.284;2023-03-24T12:44:21;17.40;98.50
18126;DHT22;53956;52.442;13.284;2023-03-24T12:46:58;17.40;98.10
18126;DHT22;53956;52.442;13.284;2023-03-24T12:49:50;17.30;98.00
18126;DHT22;53956;52.442;13.284;2023-03-24T12:52:32;17.30;98.10
18126;DHT22;53956;52.442;13.284;2023-03-24T12:55:03;17.20;96.20
18126;DHT22;53956;52.442;13.284;2023-03-24T12:57:34;17.20;94.80
18126;DHT22;53956;52.442;13.284;2023-03-24T13:00:08;17.30;95.00
18126;DHT22;53956;52.442;13.284;2023-03-24T13:02:39;17.20;94.90
18126;DHT22;53956;52.442;13.284;2023-03-24T13:05:17;17.20;93.80
18126;DHT22;53956;52.442;13.284;2023-03-24T13:07:49;17.20;93.50
18126;DHT22;53956;52.442;13.284;2023-03-24T13:10:21;17.20;93.40
18126;DHT22;53956;52.442;13.284;2023-03-24T13:12:53;17.10;93.30
18126;DHT22;53956;52.442;13.284;2023-03-24T13:15:25;17.10;93.40
18126;DHT22;53956;52.442;13.284;2023-03-24T13:18:05;17.10;93.70
18126;DHT22;53956;52.442;13.284;2023-03-24T13:20:39;17.10;92.70
18126;DHT22;53956;52.442;13.284;2023-03-24T13:23:21;17.10;92.60
18126;DHT22;53956;52.442;13.284;2023-03-24T13:25:55;17.10;93.00
18126;DHT22;53956;52.442;13.284;2023-03-24T13:28:27;17.10;92.60
18126;DHT22;53956;52.442;13.284;2023-03-24T13:30:56;17.10;92.10
18126;DHT22;53956;52.442;13.284;2023-03-24T13:33:28;17.10;92.20
18126;DHT22;53956;52.442;13.284;2023-03-24T13:36:10;17.20;92.20
18126;DHT22;53956;52.442;13.284;2023-03-24T13:38:44;17.10;92.00
18126;DHT22;53956;52.442;13.284;2023-03-24T13:41:17;17.10;92.70
18126;DHT22;53956;52.442;13.284;2023-03-24T13:43:47;17.20;91.80
18126;DHT22;53956;52.442;13.284;2023-03-24T13:46:15;17.30;92.70
18126;DHT22;53956;52.442;13.284;2023-03-24T13:48:43;17.20;93.40
18126;DHT22;53956;52.442;13.284;2023-03-24T13:51:16;17.20;91.00
18126;DHT22;53956;52.442;13.284;2023-03-24T13:53:49;17.10;90.20
18126;DHT22;53956;52.442;13.284;2023-03-24T13:56:23;17.10;89.60
18126;DHT22;53956;52.442;13.284;2023-03-24T13:59:26;17.10;89.00
18126;DHT22;53956;52.442;13.284;2023-03-24T14:05:08;17.10;85.70
18126;DHT22;53956;52.442;13.284;2023-03-24T14:07:43;17.10;84.90
18126;DHT22;53956;52.442;13.284;2023-03-24T14:10:38;17.10;84.90
18126;DHT22;53956;52.442;13.284;2023-03-24T14:13:18;17.10;83.90
18126;DHT22;53956;52.442;13.284;2023-03-24T14:15:48;17.10;83.90
18126;DHT22;53956;52.442;13.284;2023-03-24T14:18:38;17.10;84.60
18126;DHT22;53956;52.442;13.284;2023-03-24T14:21:08;17.10;84.80
18126;DHT22;53956;52.442;13.284;2023-03-24T14:23:37;17.20;85.20
18126;DHT22;53956;52.442;13.284;2023-03-24T14:26:07;17.20;85.00
18126;DHT22;53956;52.442;13.284;2023-03-24T14:28:38;17.20;86.00
18126;DHT22;53956;52.442;13.284;2023-03-24T14:31:20;17.20;87.60
18126;DHT22;53956;52.442;13.284;2023-03-24T14:33:59;17.20;87.90
18126;DHT22;53956;52.442;13.284;2023-03-24T14:36:31;17.10;88.30
18126;DHT22;53956;52.442;13.284;2023-03-24T14:39:08;17.10;89.70
18126;DHT22;53956;52.442;13.284;2023-03-24T14:41:39;17.30;89.50
18126;DHT22;53956;52.442;13.284;2023-03-24T14:44:06;17.30;88.80
18126;DHT22;53956;52.442;13.284;2023-03-24T14:46:40;17.30;88.50
18126;DHT22;53956;52.442;13.284;2023-03-24T14:49:16;17.20;87.30
18126;DHT22;53956;52.442;13.284;2023-03-24T14:51:51;17.30;87.30
18126;DHT22;53956;52.442;13.284;2023-03-24T14:54:27;17.40;87.00
18126;DHT22;53956;52.442;13.284;2023-03-24T14:56:57;17.30;86.40
18126;DHT22;53956;52.442;13.284;2023-03-24T14:59:30;17.30;86.00
18126;DHT22;53956;52.442;13.284;2023-03-24T15:02:06;17.30;85.20
18126;DHT22;53956;52.442;13.284;2023-03-24T15:04:37;17.20;84.80
18126;DHT22;53956;52.442;13.284;2023-03-24T15:07:09;17.30;84.50
18126;DHT22;53956;52.442;13.284;2023-03-24T15:09:37;17.30;83.50
18126;DHT22;53956;52.442;13.284;2023-03-24T15:12:13;17.30;83.50
18126;DHT22;53956;52.442;13.284;2023-03-24T15:14:42;17.40;83.40
18126;DHT22;53956;52.442;13.284;2023-03-24T15:17:17;17.30;82.80
18126;DHT22;53956;52.442;13.284;2023-03-24T15:19:49;17.30;82.30
18126;DHT22;53956;52.442;13.284;2023-03-24T15:22:18;17.20;80.90
18126;DHT22;53956;52.442;13.284;2023-03-24T15:24:47;17.10;81.00
18126;DHT22;53956;52.442;13.284;2023-03-24T15:27:21;17.20;81.10
18126;DHT22;53956;52.442;13.284;2023-03-24T15:29:54;17.30;81.20
18126;DHT22;53956;52.442;13.284;2023-03-24T15:32:22;17.30;81.10
18126;DHT22;53956;52.442;13.284;2023-03-24T15:34:53;17.30;80.50
18126;DHT22;53956;52.442;13.284;2023-03-24T15:37:24;17.30;79.60
18126;DHT22;53956;52.442;13.284;2023-03-24T15:39:56;17.30;79.40
18126;DHT22;53956;52.442;13.284;2023-03-24T15:42:23;17.20;79.50
18126;DHT22;53956;52.442;13.284;2023-03-24T15:44:51;17.30;79.20
18126;DHT22;53956;52.442;13.284;2023-03-24T15:47:21;17.20;79.60
18126;DHT22;53956;52.442;13.284;2023-03-24T15:49:52;17.40;79.20
18126;DHT22;53956;52.442;13.284;2023-03-24T15:52:28;17.30;80.00
18126;DHT22;53956;52.442;13.284;2023-03-24T15:54:59;17.40;80.40
18126;DHT22;53956;52.442;13.284;2023-03-24T15:57:26;17.30;80.00
18126;DHT22;53956;52.442;13.284;2023-03-24T16:00:05;17.30;80.00
18126;DHT22;53956;52.442;13.284;2023-03-24T16:02:40;17.40;79.60